Margaret F. Cooper — WDB9825 — position and weather

sailwx.info

Track history (hours):
 
Tides and Currents Weather Stations Pressure Air Temp Water Temp Dewpoint Dewpoint Depression Visibility Wind Speed Wind Dir Waves Ship Positions

Margaret F. Cooper

Owner: CRESCENT TOWING & SALVAGE CO INC, New Orleans, LA. More information available from US FCC via Universal Licensing System and Coast Guard Vessel Documentation Center.

Last reported at 2015-Feb-20 06:08 UTC. Time now 2015-Mar-02 07:28 UTC.
Position N 29°59' W 090°24'.
Warning: this ship's position is 10 days out of date.

Length 30 m; draft 11 m.

Type: Tug. MMSI: 366983480.

Date/timePositionNaut miles runAvg speedWind from/ knotsBaromVisibWave heightAir tempDewpointWater temp
2015-Feb-20 06:08N 29°59' W 090°24'  
2015-Feb-16 05:32N 29°56' W 090°20'1 0.5
2015-Feb-16 03:10N 29°56' W 090°19'11 0.8
2015-Feb-15 14:18N 30°03' W 090°29'0 0.0
2015-Feb-15 13:06N 30°03' W 090°29'0 0.0
2015-Feb-15 12:32N 30°03' W 090°29'0 0.0
2015-Feb-15 11:33N 30°03' W 090°29'0 0.0
2015-Feb-15 10:05N 30°03' W 090°29'0 0.0
2015-Feb-15 09:24N 30°03' W 090°29'0 0.0
2015-Feb-15 07:33N 30°03' W 090°29'0 0.0
2015-Feb-15 06:10N 30°03' W 090°29'19 1.1
2015-Feb-14 13:27N 30°01' W 090°50'0 0.0
2015-Feb-14 12:28N 30°01' W 090°50'  
2015-Feb-12 07:22N 29°60' W 090°50'9 2.2
2015-Feb-12 03:19N 30°03' W 090°40'0 0.0
2015-Feb-12 02:29N 30°03' W 090°40'  
Track history (hours):
 
Tides and Currents Weather Stations Pressure Air Temp Water Temp Dewpoint Dewpoint Depression Visibility Wind Speed Wind Dir Waves Ship Positions

Margaret F. Cooper

Owner: CRESCENT TOWING & SALVAGE CO INC, New Orleans, LA. More information available from US FCC via Universal Licensing System and Coast Guard Vessel Documentation Center.

Last reported at 2015-Feb-20 06:08 UTC. Time now 2015-Mar-02 07:28 UTC.
Position N 29°59' W 090°24'.
Warning: this ship's position is 10 days out of date.

Length 30 m; draft 11 m.

Type: Tug. MMSI: 366983480.

Date/timePositionNaut miles runAvg speedWind from/ knotsBaromVisibWave heightAir tempDewpointWater temp
2015-Feb-20 06:08N 29°59' W 090°24'  
2015-Feb-16 05:32N 29°56' W 090°20'1 0.5
2015-Feb-16 03:10N 29°56' W 090°19'11 0.8
2015-Feb-15 14:18N 30°03' W 090°29'0 0.0
2015-Feb-15 13:06N 30°03' W 090°29'0 0.0
2015-Feb-15 12:32N 30°03' W 090°29'0 0.0
2015-Feb-15 11:33N 30°03' W 090°29'0 0.0
2015-Feb-15 10:05N 30°03' W 090°29'0 0.0
2015-Feb-15 09:24N 30°03' W 090°29'0 0.0
2015-Feb-15 07:33N 30°03' W 090°29'0 0.0
2015-Feb-15 06:10N 30°03' W 090°29'19 1.1
2015-Feb-14 13:27N 30°01' W 090°50'0 0.0
2015-Feb-14 12:28N 30°01' W 090°50'  
2015-Feb-12 07:22N 29°60' W 090°50'9 2.2
2015-Feb-12 03:19N 30°03' W 090°40'0 0.0
2015-Feb-12 02:29N 30°03' W 090°40'  

Dump ship's entire track history